Time;durP1;ratioP1;P1;durP2;ratioP2;P2;SDS_P1;SDS_P2;PMS_P1;PMS_P2;Temp;Humidity;BMP_temperature;BMP_pressure;BME280_temperature;BME280_humidity;BME280_pressure;Samples;Min_cycle;Max_cycle;Signal;HPM_P1;HPM_P2
2023/12/08 00:00:14;;;;;;;32.05;15.63;;;0.10;84.70;;;;;;4985791;28;20034;-66
2023/12/08 00:02:39;;;;;;;27.42;16.25;;;0.10;84.90;;;;;;4985332;28;20074;-67
2023/12/08 00:05:09;;;;;;;29.98;16.30;;;0.10;85.20;;;;;;4981908;28;20469;-67
2023/12/08 00:07:35;;;;;;;28.80;16.60;;;0.10;85.30;;;;;;4981153;28;20057;-68
2023/12/08 00:10:00;;;;;;;27.33;15.88;;;0.10;85.40;;;;;;4990284;28;20010;-66
2023/12/08 00:12:26;;;;;;;28.90;17.05;;;0.10;85.40;;;;;;4991419;28;20072;-66
2023/12/08 00:14:52;;;;;;;27.77;17.02;;;0.10;85.40;;;;;;4991055;28;20390;-66
2023/12/08 00:17:17;;;;;;;33.35;17.20;;;0.00;85.30;;;;;;4990628;28;20041;-67
2023/12/08 00:19:43;;;;;;;30.58;16.20;;;0.00;85.30;;;;;;4991060;28;20038;-66
2023/12/08 00:22:09;;;;;;;28.75;16.23;;;0.00;85.60;;;;;;4991102;28;20030;-67
2023/12/08 00:24:34;;;;;;;27.75;16.15;;;0.00;85.70;;;;;;4990824;28;20038;-67
2023/12/08 00:27:00;;;;;;;29.90;15.82;;;0.10;85.90;;;;;;4990284;28;20030;-67
2023/12/08 00:29:25;;;;;;;28.65;15.75;;;0.10;86.00;;;;;;4990737;28;20033;-66
2023/12/08 00:31:51;;;;;;;28.40;16.73;;;0.10;86.10;;;;;;4989955;28;20397;-67
2023/12/08 00:34:18;;;;;;;30.23;16.92;;;0.10;86.00;;;;;;4990713;28;20451;-66
2023/12/08 00:36:44;;;;;;;30.70;17.48;;;0.20;86.00;;;;;;4990661;28;20034;-66
2023/12/08 00:39:10;;;;;;;29.63;16.52;;;0.20;85.80;;;;;;4990403;28;20026;-65
2023/12/08 00:41:35;;;;;;;29.05;16.35;;;0.20;85.70;;;;;;4990503;28;20045;-65
2023/12/08 00:44:01;;;;;;;27.67;16.95;;;0.20;85.80;;;;;;4982009;28;20562;-66
2023/12/08 00:46:27;;;;;;;26.45;16.65;;;0.20;86.00;;;;;;4984511;28;20077;-66
2023/12/08 00:48:52;;;;;;;26.85;16.67;;;0.20;86.00;;;;;;4989396;28;20030;-67
2023/12/08 00:51:18;;;;;;;28.27;16.92;;;0.20;86.10;;;;;;4983911;28;20022;-67
2023/12/08 00:53:44;;;;;;;30.27;17.65;;;0.30;86.20;;;;;;4984778;28;20043;-67
2023/12/08 00:56:09;;;;;;;27.00;16.15;;;0.30;86.00;;;;;;4984674;28;20034;-66
2023/12/08 00:58:38;;;;;;;31.17;17.02;;;0.40;86.10;;;;;;4986624;28;20068;-65
2023/12/08 01:01:04;;;;;;;27.58;16.92;;;0.40;86.10;;;;;;4988852;28;20478;-66
2023/12/08 01:03:30;;;;;;;28.02;16.67;;;0.50;86.20;;;;;;4985787;28;20026;-66
2023/12/08 01:05:56;;;;;;;30.38;16.17;;;0.50;86.10;;;;;;4983577;28;20463;-67
2023/12/08 01:08:22;;;;;;;27.85;15.55;;;0.50;86.00;;;;;;4969623;28;20037;-67
2023/12/08 01:10:48;;;;;;;29.52;16.75;;;0.50;86.00;;;;;;4983088;28;20030;-66
2023/12/08 01:13:13;;;;;;;30.10;16.67;;;0.50;85.80;;;;;;4984085;28;20605;-67
2023/12/08 01:15:39;;;;;;;28.85;17.55;;;0.60;85.90;;;;;;4985204;28;21394;-66
2023/12/08 01:18:04;;;;;;;30.92;17.02;;;0.60;85.60;;;;;;4986426;28;20042;-66
2023/12/08 01:20:30;;;;;;;29.05;16.05;;;0.60;85.40;;;;;;4991364;28;20385;-66
2023/12/08 01:22:56;;;;;;;28.70;16.08;;;0.50;85.60;;;;;;4990506;28;20065;-64
2023/12/08 01:25:22;;;;;;;29.60;18.10;;;0.60;85.80;;;;;;4985922;28;20504;-66
2023/12/08 01:27:47;;;;;;;29.75;17.33;;;0.50;85.80;;;;;;4988989;28;20133;-66
2023/12/08 01:30:13;;;;;;;28.30;17.27;;;0.60;85.80;;;;;;4987381;28;20080;-66
2023/12/08 01:32:38;;;;;;;28.80;16.80;;;0.60;85.80;;;;;;4988822;28;20031;-66
2023/12/08 01:35:04;;;;;;;27.73;17.90;;;0.60;85.90;;;;;;4990216;28;20030;-66
2023/12/08 01:37:30;;;;;;;27.58;16.73;;;0.50;85.80;;;;;;4987957;28;20046;-67
2023/12/08 01:39:55;;;;;;;27.10;17.15;;;0.50;85.80;;;;;;4986811;28;20025;-66
2023/12/08 01:42:23;;;;;;;28.15;17.17;;;0.50;86.00;;;;;;4971577;28;20597;-66
2023/12/08 01:44:49;;;;;;;31.40;18.10;;;0.50;86.60;;;;;;4991007;28;20030;-67
2023/12/08 01:47:16;;;;;;;33.42;18.38;;;0.60;86.20;;;;;;4970587;28;20427;-67
2023/12/08 01:49:42;;;;;;;30.20;17.23;;;0.60;85.90;;;;;;4987968;28;20501;-66
2023/12/08 01:52:09;;;;;;;31.60;17.88;;;0.60;85.90;;;;;;4993313;28;20041;-67
2023/12/08 01:54:35;;;;;;;31.80;18.08;;;0.60;86.00;;;;;;4992790;28;20038;-66
2023/12/08 01:57:02;;;;;;;31.20;17.42;;;0.60;86.10;;;;;;4992896;28;20105;-67
2023/12/08 01:59:29;;;;;;;30.77;17.83;;;0.60;86.10;;;;;;4990831;28;20045;-67
2023/12/08 02:01:54;;;;;;;30.05;17.50;;;0.70;86.30;;;;;;4992038;28;20512;-67
2023/12/08 02:04:20;;;;;;;29.17;17.70;;;0.60;86.20;;;;;;4990942;28;20041;-66
2023/12/08 02:06:46;;;;;;;31.92;18.23;;;0.70;86.20;;;;;;4987246;28;20038;-65
2023/12/08 02:09:12;;;;;;;29.38;18.02;;;0.70;86.10;;;;;;4987223;28;20030;-67
2023/12/08 02:11:39;;;;;;;28.35;17.65;;;0.70;86.10;;;;;;4989949;28;20023;-65
2023/12/08 02:14:05;;;;;;;29.63;17.75;;;0.70;86.10;;;;;;4986462;28;20029;-66
2023/12/08 02:16:43;;;;;;;26.60;16.60;;;0.80;85.90;;;;;;4987515;28;20117;-66
2023/12/08 02:19:13;;;;;;;30.20;18.35;;;0.70;85.80;;;;;;4988742;28;20030;-66
2023/12/08 02:21:39;;;;;;;31.83;17.35;;;0.80;85.90;;;;;;4987641;28;20500;-66
2023/12/08 02:24:05;;;;;;;27.55;16.45;;;0.70;85.90;;;;;;4985757;28;20030;-66
2023/12/08 02:26:30;;;;;;;30.45;17.48;;;0.70;86.00;;;;;;4989364;28;20045;-66
2023/12/08 02:28:56;;;;;;;30.90;17.38;;;0.80;86.00;;;;;;4990919;28;20030;-65
2023/12/08 02:31:32;;;;;;;28.90;17.42;;;0.80;85.90;;;;;;4986820;28;20018;-67
2023/12/08 02:34:00;;;;;;;28.95;16.77;;;0.70;85.90;;;;;;4985147;28;20026;-66
2023/12/08 02:36:26;;;;;;;29.25;18.13;;;0.70;85.90;;;;;;4987944;28;20061;-67
2023/12/08 02:38:54;;;;;;;30.70;18.20;;;0.70;85.80;;;;;;4987587;28;20492;-67
2023/12/08 02:41:19;;;;;;;32.85;18.67;;;0.70;85.80;;;;;;4987327;28;20129;-67
2023/12/08 02:43:45;;;;;;;30.58;18.20;;;0.60;85.90;;;;;;4988527;28;20144;-68
2023/12/08 02:46:11;;;;;;;31.52;19.95;;;0.60;86.00;;;;;;4987143;28;20061;-66
2023/12/08 02:48:36;;;;;;;33.90;19.67;;;0.50;86.00;;;;;;4986698;28;20085;-66
2023/12/08 02:51:03;;;;;;;34.75;20.50;;;0.50;86.10;;;;;;4989406;28;20022;-66
2023/12/08 02:53:29;;;;;;;33.35;19.50;;;0.40;86.30;;;;;;4988224;28;20109;-68
2023/12/08 02:55:54;;;;;;;34.90;20.40;;;0.40;86.40;;;;;;4986751;28;20109;-67
2023/12/08 02:58:23;;;;;;;35.03;19.95;;;0.30;86.50;;;;;;4987882;28;20413;-67
2023/12/08 03:00:48;;;;;;;36.00;20.55;;;0.30;86.70;;;;;;4987092;28;20445;-67
2023/12/08 03:03:14;;;;;;;33.83;19.98;;;0.30;87.00;;;;;;4985569;28;20026;-66
2023/12/08 03:05:39;;;;;;;36.10;20.35;;;0.30;87.30;;;;;;4989257;28;20031;-66
2023/12/08 03:08:05;;;;;;;33.28;19.30;;;0.30;87.50;;;;;;4987834;28;20030;-67
2023/12/08 03:10:30;;;;;;;35.80;19.48;;;0.40;87.70;;;;;;4987683;28;20045;-66
2023/12/08 03:12:56;;;;;;;32.97;19.63;;;0.40;87.60;;;;;;4987445;28;20030;-65
2023/12/08 03:15:23;;;;;;;35.38;20.50;;;0.40;87.50;;;;;;4985082;28;20030;-67
2023/12/08 03:17:48;;;;;;;32.92;19.98;;;0.50;87.20;;;;;;4987038;28;20027;-66
2023/12/08 03:20:14;;;;;;;32.10;19.25;;;0.50;87.20;;;;;;4987087;28;20049;-66
2023/12/08 03:22:39;;;;;;;32.67;19.70;;;0.50;87.20;;;;;;4987599;28;20128;-67
2023/12/08 03:25:05;;;;;;;35.47;20.67;;;0.50;87.20;;;;;;4987670;28;20110;-67
2023/12/08 03:27:31;;;;;;;33.30;18.95;;;0.50;87.10;;;;;;4985352;28;20022;-66
2023/12/08 03:29:56;;;;;;;32.83;19.23;;;0.50;87.00;;;;;;4988746;28;20030;-67
2023/12/08 03:32:22;;;;;;;34.70;19.60;;;0.60;87.20;;;;;;4986999;28;20026;-67
2023/12/08 03:34:48;;;;;;;34.20;20.13;;;0.70;87.10;;;;;;4986855;28;20045;-67
2023/12/08 03:37:13;;;;;;;36.25;20.27;;;0.70;87.10;;;;;;4988223;28;20486;-66
2023/12/08 03:39:39;;;;;;;32.95;19.38;;;0.70;87.10;;;;;;4987203;28;20433;-67
2023/12/08 03:42:04;;;;;;;32.65;19.50;;;0.70;87.00;;;;;;4985346;28;20046;-66
2023/12/08 03:44:30;;;;;;;35.90;20.27;;;0.80;87.00;;;;;;4986109;28;20034;-67
2023/12/08 03:46:55;;;;;;;31.75;18.92;;;0.80;86.80;;;;;;4987532;28;20018;-66
2023/12/08 03:49:21;;;;;;;33.75;20.67;;;0.80;86.80;;;;;;4986638;28;20025;-66
2023/12/08 03:51:46;;;;;;;31.92;19.85;;;0.80;86.60;;;;;;4989172;28;20023;-66
2023/12/08 03:54:12;;;;;;;36.83;20.40;;;0.80;86.40;;;;;;4987968;28;20038;-67
2023/12/08 03:56:37;;;;;;;35.13;19.88;;;0.80;86.30;;;;;;4984909;28;20478;-66
2023/12/08 03:59:03;;;;;;;34.22;20.15;;;0.80;86.60;;;;;;4988433;28;20061;-66
2023/12/08 04:01:29;;;;;;;32.67;20.30;;;0.80;86.60;;;;;;4983834;28;20041;-67
2023/12/08 04:03:54;;;;;;;38.67;20.27;;;0.70;86.60;;;;;;4986770;28;20026;-67
2023/12/08 04:06:20;;;;;;;33.47;20.23;;;0.80;86.60;;;;;;4986844;28;20058;-66
2023/12/08 04:08:45;;;;;;;34.10;20.00;;;0.80;86.60;;;;;;4987570;28;20585;-66
2023/12/08 04:11:11;;;;;;;37.10;21.23;;;0.80;86.60;;;;;;4983713;28;20034;-67
2023/12/08 04:13:39;;;;;;;32.38;19.75;;;0.80;86.50;;;;;;4971687;28;20081;-67
2023/12/08 04:16:05;;;;;;;36.65;20.67;;;0.80;86.30;;;;;;4986641;28;20034;-66
2023/12/08 04:18:30;;;;;;;35.03;21.10;;;0.70;86.30;;;;;;4988658;28;20485;-66
2023/12/08 04:20:56;;;;;;;35.13;19.60;;;0.80;86.30;;;;;;4985586;28;20025;-67
2023/12/08 04:23:22;;;;;;;35.40;19.80;;;0.70;86.40;;;;;;4989395;28;20393;-67
2023/12/08 04:25:47;;;;;;;34.13;20.27;;;0.70;86.60;;;;;;4989369;28;20041;-66
2023/12/08 04:28:13;;;;;;;34.60;19.92;;;0.70;86.80;;;;;;4989368;28;20023;-66
2023/12/08 04:30:38;;;;;;;36.10;20.23;;;0.70;86.80;;;;;;4989313;28;20023;-67
2023/12/08 04:33:04;;;;;;;36.00;20.30;;;0.80;86.80;;;;;;4986292;28;20482;-68
2023/12/08 04:35:29;;;;;;;34.40;20.40;;;0.80;86.80;;;;;;4984434;28;20652;-68
2023/12/08 04:37:55;;;;;;;34.90;19.75;;;0.80;86.80;;;;;;4990112;28;20030;-66
2023/12/08 04:40:20;;;;;;;37.08;20.58;;;0.80;86.60;;;;;;4992735;28;20061;-66
2023/12/08 04:42:46;;;;;;;36.45;20.15;;;0.80;86.60;;;;;;4988032;28;20393;-67
2023/12/08 04:45:13;;;;;;;32.28;19.75;;;0.80;86.60;;;;;;4984520;28;20454;-68
2023/12/08 04:47:40;;;;;;;34.75;20.10;;;0.70;86.60;;;;;;4971134;28;20075;-66
2023/12/08 04:50:06;;;;;;;32.28;19.55;;;0.70;86.60;;;;;;4982739;28;20038;-66
2023/12/08 04:52:32;;;;;;;33.65;19.65;;;0.70;86.80;;;;;;4991387;28;20506;-66
2023/12/08 04:55:01;;;;;;;31.85;19.73;;;0.70;86.90;;;;;;4994863;28;20370;-64
2023/12/08 04:57:27;;;;;;;32.85;19.45;;;0.70;87.10;;;;;;4971974;28;20034;-66
2023/12/08 04:59:52;;;;;;;34.72;20.90;;;0.70;87.10;;;;;;4986097;28;20102;-66
2023/12/08 05:02:18;;;;;;;34.75;19.80;;;0.70;87.10;;;;;;4987465;28;20057;-67
2023/12/08 05:04:43;;;;;;;30.58;19.33;;;0.70;87.00;;;;;;4990521;28;20062;-67
2023/12/08 05:07:09;;;;;;;34.53;20.30;;;0.80;87.20;;;;;;4994233;28;20030;-66
2023/12/08 05:09:35;;;;;;;32.70;19.85;;;0.80;87.10;;;;;;4992691;28;20081;-66
2023/12/08 05:12:00;;;;;;;35.35;20.52;;;0.80;87.00;;;;;;4994329;28;20113;-65
2023/12/08 05:14:26;;;;;;;32.03;19.75;;;0.80;87.00;;;;;;4994092;28;20030;-66
2023/12/08 05:16:51;;;;;;;30.70;18.88;;;0.80;87.00;;;;;;4993481;28;20093;-67
2023/12/08 05:19:17;;;;;;;32.40;19.45;;;0.80;87.10;;;;;;4971118;28;20037;-67
2023/12/08 05:21:42;;;;;;;32.25;19.95;;;0.80;87.00;;;;;;4993469;28;20099;-66
2023/12/08 05:24:08;;;;;;;32.55;19.63;;;0.80;87.10;;;;;;4993475;28;20481;-66
2023/12/08 05:26:34;;;;;;;33.05;19.63;;;0.80;87.20;;;;;;4993457;28;20425;-66
2023/12/08 05:28:59;;;;;;;30.10;18.38;;;0.80;87.30;;;;;;4993473;28;20018;-68
2023/12/08 05:31:25;;;;;;;30.13;18.48;;;0.80;87.20;;;;;;4991523;28;20034;-65
2023/12/08 05:33:50;;;;;;;28.67;17.08;;;0.80;87.20;;;;;;4993356;28;20354;-66
2023/12/08 05:36:17;;;;;;;28.95;17.50;;;0.80;87.20;;;;;;4992851;28;20124;-66
2023/12/08 05:38:43;;;;;;;31.23;18.73;;;0.90;87.20;;;;;;4993548;28;20022;-66
2023/12/08 05:41:08;;;;;;;30.63;18.40;;;0.90;87.20;;;;;;4992791;28;20030;-66
2023/12/08 05:43:37;;;;;;;27.55;17.15;;;0.90;87.10;;;;;;4993488;28;20033;-66
2023/12/08 05:46:02;;;;;;;31.75;18.45;;;1.00;87.20;;;;;;4993631;28;20026;-66
2023/12/08 05:48:28;;;;;;;26.50;17.02;;;0.90;87.00;;;;;;4993613;28;20101;-66
2023/12/08 05:50:54;;;;;;;30.10;17.85;;;0.90;87.00;;;;;;4993036;28;20014;-67
2023/12/08 05:53:20;;;;;;;28.42;17.25;;;0.90;87.00;;;;;;4993190;28;20030;-67
2023/12/08 05:55:45;;;;;;;28.45;16.63;;;0.90;87.10;;;;;;4993188;28;20030;-67
2023/12/08 05:58:11;;;;;;;27.00;17.70;;;0.90;87.20;;;;;;4992973;28;20060;-67
2023/12/08 06:00:37;;;;;;;28.40;17.00;;;0.90;87.20;;;;;;4992906;28;20030;-66
2023/12/08 06:03:02;;;;;;;25.35;15.90;;;0.90;87.20;;;;;;4992518;28;20088;-67
2023/12/08 06:05:28;;;;;;;25.20;17.30;;;0.90;87.30;;;;;;4993051;28;20433;-66
2023/12/08 06:07:53;;;;;;;28.27;16.70;;;0.90;87.30;;;;;;4992743;28;20019;-67
2023/12/08 06:10:21;;;;;;;26.67;17.23;;;0.90;87.40;;;;;;4989301;28;20034;-67
2023/12/08 06:12:47;;;;;;;27.42;17.58;;;0.90;88.40;;;;;;4990719;28;20030;-66
2023/12/08 06:15:12;;;;;;;29.52;17.73;;;0.90;87.60;;;;;;4987989;28;20048;-66
2023/12/08 06:17:38;;;;;;;25.95;16.70;;;1.00;87.70;;;;;;4990378;28;20191;-66
2023/12/08 06:20:09;;;;;;;27.63;17.27;;;1.00;87.70;;;;;;4992384;28;20026;-66
2023/12/08 06:22:36;;;;;;;25.13;16.25;;;1.00;87.80;;;;;;4992537;28;20030;-66
2023/12/08 06:25:01;;;;;;;26.42;16.05;;;1.00;87.90;;;;;;4985968;28;20038;-66
2023/12/08 06:27:27;;;;;;;27.40;16.42;;;1.10;87.90;;;;;;4991352;28;20026;-66
2023/12/08 06:29:53;;;;;;;25.23;15.90;;;1.10;87.90;;;;;;4991815;28;20561;-66
2023/12/08 06:32:18;;;;;;;25.52;16.00;;;1.10;87.90;;;;;;4992693;28;20478;-66
2023/12/08 06:34:46;;;;;;;25.65;16.48;;;1.20;87.90;;;;;;4992618;28;20057;-66
2023/12/08 06:37:12;;;;;;;26.75;15.60;;;1.20;88.00;;;;;;4992144;28;20030;-67
2023/12/08 06:39:39;;;;;;;26.42;16.20;;;1.30;88.00;;;;;;4992329;28;20022;-66
2023/12/08 06:42:05;;;;;;;26.23;16.40;;;1.30;88.00;;;;;;4992108;28;20023;-66
2023/12/08 06:44:30;;;;;;;25.55;15.20;;;1.30;88.00;;;;;;4992441;28;20034;-66
2023/12/08 06:46:56;;;;;;;24.58;15.73;;;1.30;88.00;;;;;;4992181;28;20014;-65
2023/12/08 06:49:21;;;;;;;24.73;15.85;;;1.40;88.10;;;;;;4980779;28;20378;-67
2023/12/08 06:51:47;;;;;;;23.42;15.30;;;1.40;88.10;;;;;;4983310;28;20046;-63
2023/12/08 06:54:13;;;;;;;24.10;14.98;;;1.50;88.10;;;;;;4982494;28;20500;-69
2023/12/08 06:56:42;;;;;;;26.08;15.73;;;1.50;88.00;;;;;;4984911;28;20034;-67
2023/12/08 06:59:08;;;;;;;27.05;16.60;;;1.50;88.00;;;;;;4987515;28;20038;-66
2023/12/08 07:01:34;;;;;;;25.48;15.70;;;1.50;88.00;;;;;;4982106;28;20606;-67
2023/12/08 07:04:03;;;;;;;25.67;16.30;;;1.60;88.10;;;;;;4981131;28;20041;-67
2023/12/08 07:06:33;;;;;;;28.98;16.50;;;1.60;88.20;;;;;;4985982;28;20018;-66
2023/12/08 07:08:58;;;;;;;32.35;17.60;;;1.60;88.40;;;;;;4986294;28;20564;-67
2023/12/08 07:11:24;;;;;;;34.58;18.05;;;1.70;88.40;;;;;;4988228;28;20035;-66
2023/12/08 07:13:50;;;;;;;34.20;18.13;;;1.70;88.60;;;;;;4986524;28;20603;-67
2023/12/08 07:16:18;;;;;;;33.88;18.15;;;1.80;88.70;;;;;;4983544;28;20084;-66
2023/12/08 07:18:45;;;;;;;32.53;18.25;;;1.80;88.70;;;;;;4962524;28;20280;-67
2023/12/08 07:21:11;;;;;;;33.30;18.70;;;1.80;88.90;;;;;;4981336;28;20041;-66
2023/12/08 07:23:37;;;;;;;32.13;18.48;;;1.90;89.10;;;;;;4977525;28;20741;-67
2023/12/08 07:26:06;;;;;;;32.25;18.75;;;1.90;89.10;;;;;;4965950;28;20145;-67
2023/12/08 07:28:32;;;;;;;33.38;19.58;;;2.00;89.30;;;;;;4984727;28;20053;-66
2023/12/08 07:30:57;;;;;;;34.40;20.33;;;2.00;89.30;;;;;;4978947;28;20054;-66
2023/12/08 07:33:23;;;;;;;34.83;19.55;;;2.00;89.30;;;;;;4986349;28;20084;-67
2023/12/08 07:35:48;;;;;;;34.50;19.75;;;2.10;89.40;;;;;;4979974;28;20754;-66
2023/12/08 07:38:14;;;;;;;30.60;19.20;;;2.10;89.40;;;;;;4981283;28;20506;-66
2023/12/08 07:40:40;;;;;;;28.75;18.05;;;2.10;89.50;;;;;;4980598;28;20034;-66
2023/12/08 07:43:07;;;;;;;29.88;18.63;;;2.20;89.50;;;;;;4981407;28;20038;-67
2023/12/08 07:45:33;;;;;;;31.98;18.67;;;2.20;89.60;;;;;;4977919;28;20117;-66
2023/12/08 07:47:58;;;;;;;28.85;18.55;;;2.30;89.60;;;;;;4982674;28;20105;-68
2023/12/08 07:50:24;;;;;;;29.65;19.25;;;2.30;89.60;;;;;;4978329;28;20026;-67
2023/12/08 07:52:51;;;;;;;30.08;18.48;;;2.30;89.70;;;;;;4983870;28;20030;-67
2023/12/08 07:55:17;;;;;;;30.85;18.58;;;2.40;89.70;;;;;;4981988;28;20110;-67
2023/12/08 07:57:43;;;;;;;30.30;18.27;;;2.40;89.70;;;;;;4984919;28;20026;-65
2023/12/08 08:00:10;;;;;;;31.90;18.13;;;2.50;89.80;;;;;;4987159;28;20049;-66
2023/12/08 08:02:39;;;;;;;33.50;19.83;;;2.50;89.80;;;;;;4990467;28;20037;-67
2023/12/08 08:05:05;;;;;;;29.60;18.33;;;2.60;90.20;;;;;;4987989;28;20490;-67
2023/12/08 08:07:31;;;;;;;30.40;19.00;;;2.70;89.80;;;;;;4990145;28;20110;-67
2023/12/08 08:09:56;;;;;;;29.63;18.88;;;2.70;89.70;;;;;;4985960;28;20114;-67
2023/12/08 08:12:22;;;;;;;31.02;18.55;;;2.80;89.80;;;;;;4990731;28;20048;-68
2023/12/08 08:14:47;;;;;;;29.52;18.05;;;2.80;89.60;;;;;;4990885;28;20058;-68
2023/12/08 08:17:13;;;;;;;30.77;18.88;;;2.90;89.70;;;;;;4989095;28;20034;-67
2023/12/08 08:19:41;;;;;;;33.67;20.08;;;2.90;89.60;;;;;;4989381;28;20046;-67
2023/12/08 08:22:06;;;;;;;32.50;20.75;;;2.90;89.70;;;;;;4990016;28;20034;-68
2023/12/08 08:24:32;;;;;;;33.00;19.67;;;2.90;89.70;;;;;;4989677;28;20399;-67
2023/12/08 08:26:57;;;;;;;31.08;19.83;;;3.00;89.80;;;;;;4988474;28;20041;-68
2023/12/08 08:29:23;;;;;;;32.50;18.70;;;3.00;89.80;;;;;;4989301;28;20516;-68
2023/12/08 08:31:48;;;;;;;33.53;19.73;;;3.10;89.80;;;;;;4985758;28;20030;-68
2023/12/08 08:34:14;;;;;;;31.77;19.55;;;3.10;89.80;;;;;;4989949;28;20049;-67
2023/12/08 08:36:39;;;;;;;30.05;18.48;;;3.10;89.80;;;;;;4989255;28;20389;-68
2023/12/08 08:39:05;;;;;;;29.45;18.45;;;3.20;90.00;;;;;;4987327;28;20042;-68
2023/12/08 08:41:31;;;;;;;34.58;20.52;;;3.20;90.00;;;;;;4989399;28;20026;-68
2023/12/08 08:43:56;;;;;;;38.15;22.52;;;3.30;90.00;;;;;;4991666;28;20037;-68
2023/12/08 08:46:22;;;;;;;41.85;23.63;;;3.40;90.00;;;;;;4989115;28;20060;-68
2023/12/08 08:48:47;;;;;;;39.08;23.08;;;3.30;90.00;;;;;;4987457;28;20469;-69
2023/12/08 08:51:16;;;;;;;34.20;21.75;;;3.30;90.00;;;;;;4990276;28;20027;-67
2023/12/08 08:53:44;;;;;;;30.80;19.63;;;3.40;90.10;;;;;;4990933;28;20073;-68
2023/12/08 08:56:10;;;;;;;32.53;20.38;;;3.40;90.00;;;;;;4990930;28;20113;-68
2023/12/08 08:58:38;;;;;;;31.02;19.52;;;3.40;90.10;;;;;;4988645;28;20490;-67
2023/12/08 09:01:04;;;;;;;31.40;19.85;;;3.40;90.10;;;;;;4989572;28;20038;-67
2023/12/08 09:03:38;;;;;;;30.55;19.45;;;3.50;90.10;;;;;;4985788;28;20050;-69
2023/12/08 09:06:04;;;;;;;31.10;18.75;;;3.50;90.20;;;;;;4989129;28;20023;-67
2023/12/08 09:08:29;;;;;;;30.80;18.13;;;3.50;90.30;;;;;;4989753;28;20030;-67
2023/12/08 09:10:55;;;;;;;29.42;17.17;;;3.50;90.30;;;;;;4968154;28;20357;-68
2023/12/08 09:13:21;;;;;;;28.52;17.98;;;3.60;90.40;;;;;;4991805;28;20417;-68
2023/12/08 09:15:46;;;;;;;28.70;17.55;;;3.60;90.40;;;;;;4991185;28;20060;-69
2023/12/08 09:18:12;;;;;;;33.75;18.35;;;3.70;90.40;;;;;;4990012;28;20041;-69
2023/12/08 09:20:38;;;;;;;28.90;17.98;;;3.70;90.50;;;;;;4989917;28;20774;-68
2023/12/08 09:23:03;;;;;;;28.50;17.90;;;3.70;90.50;;;;;;4987214;28;20450;-67
2023/12/08 09:25:29;;;;;;;30.48;17.77;;;3.80;90.50;;;;;;4969094;28;20030;-68
2023/12/08 09:27:55;;;;;;;29.83;18.13;;;3.80;90.50;;;;;;4985298;28;20018;-68
2023/12/08 09:30:20;;;;;;;31.15;18.80;;;3.80;90.50;;;;;;4985189;28;20022;-68
2023/12/08 09:32:50;;;;;;;29.55;17.85;;;3.90;90.60;;;;;;4985747;28;20049;-67
2023/12/08 09:35:17;;;;;;;27.65;17.35;;;3.90;90.60;;;;;;4986338;28;20038;-66
2023/12/08 09:37:43;;;;;;;29.13;17.13;;;3.90;90.60;;;;;;4991862;28;20034;-68
2023/12/08 09:40:13;;;;;;;26.80;16.98;;;4.00;90.70;;;;;;4989003;28;20700;-68
2023/12/08 09:42:57;;;;;;;27.08;16.67;;;4.00;90.70;;;;;;4982058;28;20023;-68
2023/12/08 09:45:24;;;;;;;29.93;17.40;;;4.00;90.70;;;;;;4985557;28;20481;-66
2023/12/08 09:47:54;;;;;;;27.55;16.83;;;4.10;90.70;;;;;;4991262;28;20031;-67
2023/12/08 09:50:20;;;;;;;30.73;17.42;;;4.10;90.80;;;;;;4985735;28;20516;-66
2023/12/08 09:52:49;;;;;;;26.08;17.02;;;4.20;90.80;;;;;;4986896;28;20030;-67
2023/12/08 09:55:16;;;;;;;27.50;16.80;;;4.20;90.90;;;;;;4991390;28;20026;-66
2023/12/08 09:57:47;;;;;;;27.38;17.10;;;4.20;90.90;;;;;;4993328;28;20072;-67
2023/12/08 10:00:13;;;;;;;28.02;16.48;;;4.30;90.90;;;;;;4989462;28;20493;-67
2023/12/08 10:02:40;;;;;;;22.85;14.68;;;4.30;90.90;;;;;;4992403;28;20026;-66
2023/12/08 10:05:10;;;;;;;19.65;13.02;;;4.40;90.90;;;;;;4992551;28;20041;-66
2023/12/08 10:07:37;;;;;;;17.15;11.93;;;4.40;90.90;;;;;;4991828;28;20023;-67
2023/12/08 10:10:03;;;;;;;18.75;11.52;;;4.40;90.90;;;;;;4990194;28;20415;-63
2023/12/08 10:12:29;;;;;;;16.70;11.38;;;4.50;91.00;;;;;;4992019;28;20030;-65
2023/12/08 10:15:00;;;;;;;18.27;11.70;;;4.50;91.40;;;;;;4990437;28;20109;-65
2023/12/08 10:17:26;;;;;;;17.35;11.18;;;4.60;91.10;;;;;;4992180;28;20323;-65
2023/12/08 10:20:09;;;;;;;16.35;10.65;;;4.60;91.10;;;;;;4984979;28;20034;-64
2023/12/08 10:22:45;;;;;;;17.70;11.00;;;4.60;91.30;;;;;;4989827;28;20086;-65
2023/12/08 10:25:19;;;;;;;14.25;10.02;;;4.70;91.20;;;;;;4991836;28;20078;-65
2023/12/08 10:27:52;;;;;;;17.75;10.60;;;4.70;91.20;;;;;;4992890;28;20027;-66
2023/12/08 10:30:23;;;;;;;15.25;9.70;;;4.70;91.10;;;;;;4987285;28;20406;-65
2023/12/08 10:32:49;;;;;;;14.23;9.50;;;4.80;91.20;;;;;;4987282;28;20014;-66
2023/12/08 10:35:15;;;;;;;14.13;9.13;;;4.80;91.10;;;;;;4989645;28;20023;-65
2023/12/08 10:37:42;;;;;;;14.05;8.95;;;4.80;91.20;;;;;;4990596;28;20037;-65
2023/12/08 10:40:10;;;;;;;12.85;8.25;;;4.90;91.20;;;;;;4983924;28;20041;-65
2023/12/08 10:42:36;;;;;;;13.02;8.25;;;4.90;91.20;;;;;;4989411;28;20078;-66
2023/12/08 10:45:13;;;;;;;13.10;9.10;;;4.90;91.20;;;;;;4988232;28;20054;-66
2023/12/08 10:47:43;;;;;;;12.40;8.57;;;5.00;91.30;;;;;;4987500;28;20022;-66
2023/12/08 10:50:09;;;;;;;10.48;7.47;;;5.00;91.30;;;;;;4989711;28;20164;-66
2023/12/08 10:52:40;;;;;;;12.10;7.47;;;5.00;91.30;;;;;;4972347;28;20501;-66
2023/12/08 10:55:06;;;;;;;11.65;7.78;;;5.10;91.30;;;;;;4989240;28;20113;-65
2023/12/08 10:57:33;;;;;;;15.63;10.07;;;5.10;91.30;;;;;;4986433;28;20085;-66
2023/12/08 11:00:15;;;;;;;15.77;9.50;;;5.20;91.30;;;;;;4986578;28;20027;-64
2023/12/08 11:02:45;;;;;;;19.88;12.00;;;5.20;91.30;;;;;;4987447;28;20383;-64
2023/12/08 11:05:14;;;;;;;18.50;10.55;;;5.20;91.20;;;;;;4988146;28;20029;-65
2023/12/08 11:07:44;;;;;;;17.70;11.43;;;5.30;91.10;;;;;;4989553;28;20018;-64
2023/12/08 11:10:12;;;;;;;19.55;11.63;;;5.30;91.10;;;;;;4986372;28;20034;-65
2023/12/08 11:12:48;;;;;;;18.88;11.50;;;5.30;90.90;;;;;;4966162;28;20022;-65
2023/12/08 11:15:19;;;;;;;19.33;12.35;;;5.30;91.10;;;;;;4988210;28;20034;-65
2023/12/08 11:17:48;;;;;;;17.20;10.98;;;5.30;91.10;;;;;;4990378;28;20045;-65
2023/12/08 11:20:15;;;;;;;15.68;10.43;;;5.30;91.10;;;;;;4983060;28;20433;-65
2023/12/08 11:22:41;;;;;;;19.40;11.10;;;5.30;91.10;;;;;;4980557;28;20027;-65
2023/12/08 11:25:19;;;;;;;16.08;11.02;;;5.40;91.20;;;;;;4989616;28;20042;-65
2023/12/08 11:28:03;;;;;;;19.67;12.18;;;5.40;91.30;;;;;;4989376;28;20037;-64
2023/12/08 11:31:08;;;;;;;20.45;13.23;;;5.40;91.30;;;;;;4990935;28;20055;-64
2023/12/08 11:33:53;;;;;;;20.35;12.73;;;5.50;91.40;;;;;;4990519;28;20448;-64
2023/12/08 11:36:19;;;;;;;16.67;11.50;;;5.50;91.30;;;;;;4990670;28;20080;-65
2023/12/08 11:38:44;;;;;;;17.90;11.73;;;5.60;91.20;;;;;;4991569;28;20110;-64
2023/12/08 11:41:15;;;;;;;18.27;12.38;;;5.60;91.60;;;;;;4984852;28;20026;-64
2023/12/08 11:43:46;;;;;;;16.73;11.70;;;5.60;91.20;;;;;;4992061;28;20042;-64
2023/12/08 11:46:15;;;;;;;17.95;12.25;;;5.70;91.20;;;;;;4992582;28;20057;-63
2023/12/08 11:48:42;;;;;;;17.48;11.20;;;5.70;91.10;;;;;;4990283;28;20386;-64
2023/12/08 11:51:07;;;;;;;16.77;10.93;;;5.80;91.10;;;;;;4989538;28;20030;-61
2023/12/08 11:53:53;;;;;;;18.20;12.05;;;5.80;91.00;;;;;;4991843;28;20439;-63
2023/12/08 11:56:43;;;;;;;18.90;11.73;;;5.80;91.10;;;;;;4988560;28;20034;-63
2023/12/08 11:59:19;;;;;;;18.45;11.68;;;5.80;91.00;;;;;;4989953;28;20524;-63
2023/12/08 12:01:47;;;;;;;23.00;12.98;;;5.80;90.90;;;;;;4991137;28;20565;-63
2023/12/08 12:04:13;;;;;;;19.70;12.65;;;5.80;90.80;;;;;;4991129;28;20041;-63
2023/12/08 12:06:42;;;;;;;18.70;12.52;;;5.80;90.80;;;;;;4991089;28;20018;-62
2023/12/08 12:09:09;;;;;;;15.70;11.30;;;5.80;90.80;;;;;;4990007;28;20031;-63
2023/12/08 12:11:39;;;;;;;16.67;11.45;;;5.80;90.80;;;;;;4990671;28;20069;-63
2023/12/08 12:14:07;;;;;;;17.90;11.45;;;5.70;90.80;;;;;;4979158;28;20030;-60
2023/12/08 12:16:32;;;;;;;18.27;12.05;;;5.80;90.80;;;;;;4985405;28;20034;-62
2023/12/08 12:18:58;;;;;;;16.50;11.65;;;5.70;90.80;;;;;;4988350;28;20029;-63
2023/12/08 12:21:24;;;;;;;18.90;12.90;;;5.70;90.70;;;;;;4967666;28;20023;-60
2023/12/08 12:23:49;;;;;;;19.27;12.07;;;5.70;90.70;;;;;;4985084;28;20242;-62
2023/12/08 12:26:18;;;;;;;18.80;12.93;;;5.70;90.70;;;;;;4986784;28;20442;-60
2023/12/08 12:28:43;;;;;;;19.02;12.25;;;5.70;90.80;;;;;;4988236;28;20426;-61
2023/12/08 12:31:09;;;;;;;18.10;12.23;;;5.70;90.80;;;;;;4986923;28;20038;-61
2023/12/08 12:33:36;;;;;;;20.83;12.65;;;5.60;90.80;;;;;;4986304;28;20461;-63
2023/12/08 12:36:03;;;;;;;19.95;12.40;;;5.70;90.90;;;;;;4964341;28;20176;-60